Time;durP1;ratioP1;P1;durP2;ratioP2;P2;SDS_P1;SDS_P2;PMS_P1;PMS_P2;Temp;Humidity;BMP_temperature;BMP_pressure;BME280_temperature;BME280_humidity;BME280_pressure;Samples;Min_cycle;Max_cycle;Signal;HPM_P1;HPM_P2
2022/06/20 00:01:08;;;;;;;11.23;6.20;;;26.00;64.40;;;;;;5003676;28;20497;-73
2022/06/20 00:03:39;;;;;;;13.13;5.80;;;26.00;64.30;;;;;;4991459;28;20505;-73
2022/06/20 00:06:13;;;;;;;10.03;5.77;;;26.00;64.30;;;;;;4991239;28;20513;-73
2022/06/20 00:08:41;;;;;;;11.27;5.57;;;25.90;64.30;;;;;;4995009;28;20994;-74
2022/06/20 00:11:13;;;;;;;13.57;5.57;;;25.90;64.40;;;;;;5006475;28;20489;-73
2022/06/20 00:13:43;;;;;;;10.70;5.40;;;25.90;64.50;;;;;;4996610;28;20861;-74
2022/06/20 00:16:14;;;;;;;15.37;6.20;;;25.90;64.50;;;;;;5006659;28;20492;-73
2022/06/20 00:18:43;;;;;;;16.70;7.10;;;25.90;64.50;;;;;;5001878;28;20563;-73
2022/06/20 00:21:14;;;;;;;11.70;6.00;;;25.90;64.50;;;;;;5009521;28;20473;-73
2022/06/20 00:23:42;;;;;;;9.73;5.43;;;25.90;64.50;;;;;;5002951;28;20524;-73
2022/06/20 00:26:11;;;;;;;13.30;6.53;;;25.90;64.50;;;;;;5008092;28;20451;-72
2022/06/20 00:28:38;;;;;;;9.60;5.60;;;25.90;64.50;;;;;;5007840;28;20515;-72
2022/06/20 00:31:07;;;;;;;12.73;6.07;;;25.80;64.50;;;;;;5007274;28;20979;-73
2022/06/20 00:33:35;;;;;;;13.63;5.90;;;25.80;64.50;;;;;;4997690;28;20519;-74
2022/06/20 00:36:04;;;;;;;10.20;4.93;;;25.70;64.50;;;;;;5008967;28;20848;-74
2022/06/20 00:38:35;;;;;;;19.20;5.97;;;25.60;64.60;;;;;;5007526;28;20470;-74
2022/06/20 00:41:08;;;;;;;14.93;6.00;;;25.60;64.70;;;;;;4986222;28;20458;-73
2022/06/20 00:43:39;;;;;;;10.30;5.60;;;25.60;64.80;;;;;;4999567;28;20489;-73
2022/06/20 00:46:11;;;;;;;15.97;5.70;;;25.50;64.80;;;;;;5007034;28;20477;-74
2022/06/20 00:48:46;;;;;;;9.93;5.40;;;25.50;64.90;;;;;;5004459;28;20501;-74
2022/06/20 00:51:20;;;;;;;11.73;5.83;;;25.50;65.00;;;;;;5003779;28;20480;-73
2022/06/20 00:53:57;;;;;;;15.57;6.53;;;25.40;65.00;;;;;;5004457;28;20499;-73
2022/06/20 00:56:31;;;;;;;11.50;6.53;;;25.40;65.10;;;;;;5000449;28;20475;-72
2022/06/20 00:59:04;;;;;;;10.73;6.17;;;25.30;65.20;;;;;;4994241;28;20486;-72
2022/06/20 01:01:35;;;;;;;12.00;5.17;;;25.30;65.30;;;;;;5003750;28;21066;-73
2022/06/20 01:04:08;;;;;;;11.00;5.80;;;25.30;65.30;;;;;;4995891;28;20489;-74
2022/06/20 01:06:40;;;;;;;13.57;6.80;;;25.20;65.40;;;;;;5007517;28;20465;-74
2022/06/20 01:09:11;;;;;;;12.20;5.87;;;25.20;65.40;;;;;;4992911;28;21116;-73
2022/06/20 01:11:45;;;;;;;17.37;7.13;;;25.10;65.50;;;;;;5006354;28;20471;-73
2022/06/20 01:14:26;;;;;;;17.63;6.57;;;25.00;65.60;;;;;;5007382;28;20556;-74
2022/06/20 01:16:57;;;;;;;17.23;6.90;;;25.00;65.70;;;;;;5004049;28;20474;-73
2022/06/20 01:19:41;;;;;;;13.67;6.80;;;24.90;65.80;;;;;;4994592;28;20490;-75
2022/06/20 01:22:22;;;;;;;13.20;6.43;;;24.90;65.90;;;;;;5002518;28;20489;-72
2022/06/20 01:25:09;;;;;;;15.57;6.17;;;24.80;65.90;;;;;;5006262;28;20468;-73
2022/06/20 01:27:41;;;;;;;10.10;6.03;;;24.70;66.00;;;;;;5003077;28;20550;-74
2022/06/20 01:30:10;;;;;;;15.40;6.67;;;24.70;66.20;;;;;;5005156;28;20493;-73
2022/06/20 01:32:39;;;;;;;11.10;5.70;;;24.70;66.30;;;;;;4995101;28;20521;-74
2022/06/20 01:35:11;;;;;;;14.80;6.37;;;24.70;66.50;;;;;;5005068;28;20471;-74
2022/06/20 01:37:41;;;;;;;12.00;6.60;;;24.70;66.40;;;;;;5006287;28;20478;-73
2022/06/20 01:40:12;;;;;;;11.10;6.17;;;24.70;66.40;;;;;;5002668;28;20491;-73
2022/06/20 01:42:42;;;;;;;12.33;5.93;;;24.70;66.50;;;;;;5006150;28;20510;-73
2022/06/20 01:47:56;;;;;;;9.57;5.50;;;24.70;66.60;;;;;;5002003;28;20963;-74
2022/06/20 01:50:24;;;;;;;14.37;7.17;;;24.60;66.60;;;;;;5005868;28;20524;-74
2022/06/20 01:52:53;;;;;;;10.73;6.30;;;24.50;66.60;;;;;;4995333;28;20479;-74
2022/06/20 01:55:24;;;;;;;11.10;6.43;;;24.50;66.70;;;;;;5008066;28;20493;-74
2022/06/20 01:58:00;;;;;;;12.80;5.70;;;24.50;66.70;;;;;;5007686;28;20478;-74
2022/06/20 02:00:29;;;;;;;10.23;5.07;;;24.40;66.80;;;;;;4997605;28;20485;-74
2022/06/20 02:03:00;;;;;;;15.00;6.80;;;24.40;66.90;;;;;;5006175;28;20995;-74
2022/06/20 02:05:31;;;;;;;11.40;5.90;;;24.30;67.00;;;;;;5004876;28;20486;-73
2022/06/20 02:08:02;;;;;;;13.13;7.17;;;24.30;67.00;;;;;;4993822;28;20547;-73
2022/06/20 02:10:38;;;;;;;10.50;6.20;;;24.30;67.00;;;;;;5002185;28;21005;-73
2022/06/20 02:13:10;;;;;;;15.00;6.80;;;24.20;67.10;;;;;;5008237;28;20493;-74
2022/06/20 02:15:39;;;;;;;12.17;6.23;;;24.20;67.20;;;;;;4999713;28;20479;-74
2022/06/20 02:18:09;;;;;;;14.80;5.70;;;24.20;67.30;;;;;;5003172;28;20464;-73
2022/06/20 02:20:45;;;;;;;15.60;6.17;;;24.20;67.40;;;;;;5007305;28;21059;-73
2022/06/20 02:23:16;;;;;;;10.50;5.97;;;24.20;67.50;;;;;;5008005;28;20572;-73
2022/06/20 02:25:46;;;;;;;10.37;6.27;;;24.20;67.60;;;;;;5006518;28;20891;-73
2022/06/20 02:28:21;;;;;;;10.97;6.43;;;24.20;67.50;;;;;;5006088;28;20471;-73
2022/06/20 02:30:49;;;;;;;11.73;6.63;;;24.10;67.60;;;;;;5007164;28;20855;-73
2022/06/20 02:33:22;;;;;;;14.20;6.10;;;24.10;67.70;;;;;;5007961;28;20482;-73
2022/06/20 02:35:51;;;;;;;13.10;7.00;;;24.10;67.70;;;;;;5001958;28;20514;-73
2022/06/20 02:38:20;;;;;;;12.30;6.80;;;24.10;67.80;;;;;;5003778;28;20460;-73
2022/06/20 02:40:49;;;;;;;11.73;6.33;;;24.10;67.80;;;;;;5000797;28;20472;-72
2022/06/20 02:43:27;;;;;;;10.30;6.13;;;24.00;67.80;;;;;;5004317;28;20491;-71
2022/06/20 02:45:57;;;;;;;12.10;6.80;;;23.90;67.80;;;;;;5002083;28;20475;-72
2022/06/20 02:48:28;;;;;;;15.47;6.30;;;23.90;68.00;;;;;;5003933;28;20527;-72
2022/06/20 02:51:01;;;;;;;12.43;6.30;;;23.90;68.10;;;;;;5000974;28;20469;-73
2022/06/20 02:53:36;;;;;;;16.70;6.60;;;23.90;68.20;;;;;;5005473;28;20490;-74
2022/06/20 02:56:07;;;;;;;14.70;5.90;;;23.90;68.30;;;;;;5003888;28;20562;-73
2022/06/20 02:58:43;;;;;;;11.53;6.07;;;23.90;68.20;;;;;;5001778;28;20504;-72
2022/06/20 03:01:19;;;;;;;17.20;7.30;;;23.90;68.20;;;;;;5003778;28;20492;-73
2022/06/20 03:03:52;;;;;;;16.80;7.57;;;23.80;68.30;;;;;;5002583;28;21048;-72
2022/06/20 03:06:25;;;;;;;18.80;6.50;;;23.80;68.50;;;;;;5018482;28;20500;-74
2022/06/20 03:08:55;;;;;;;11.60;6.90;;;23.80;68.60;;;;;;5001723;28;20463;-73
2022/06/20 03:11:26;;;;;;;12.73;6.50;;;23.80;68.70;;;;;;5004205;28;20881;-73
2022/06/20 03:13:58;;;;;;;11.80;6.23;;;23.80;68.90;;;;;;5002639;28;20486;-76
2022/06/20 03:16:27;;;;;;;10.63;7.00;;;23.70;69.00;;;;;;5002370;28;20569;-72
2022/06/20 03:18:58;;;;;;;13.27;7.83;;;23.70;69.10;;;;;;5006107;28;20559;-72
2022/06/20 03:21:32;;;;;;;15.30;7.83;;;23.80;69.30;;;;;;5004571;28;20518;-71
2022/06/20 03:24:02;;;;;;;13.87;8.60;;;23.70;69.40;;;;;;5001638;28;20956;-71
2022/06/20 03:26:31;;;;;;;16.87;8.23;;;23.70;69.50;;;;;;5004784;28;20469;-72
2022/06/20 03:29:02;;;;;;;14.37;7.57;;;23.80;69.60;;;;;;4997728;28;20451;-71
2022/06/20 03:31:31;;;;;;;15.10;7.00;;;23.80;69.70;;;;;;5002832;28;20471;-71
2022/06/20 03:34:00;;;;;;;13.50;6.10;;;23.80;69.40;;;;;;5020338;28;20491;-73
2022/06/20 03:36:29;;;;;;;12.47;6.00;;;23.70;69.50;;;;;;5007001;28;20465;-73
2022/06/20 03:38:58;;;;;;;14.33;6.43;;;23.70;69.60;;;;;;5005245;28;20472;-72
2022/06/20 03:41:28;;;;;;;12.40;5.20;;;23.70;69.50;;;;;;5007991;28;21048;-73
2022/06/20 03:44:03;;;;;;;15.70;6.03;;;23.70;69.50;;;;;;5002912;28;20536;-74
2022/06/20 03:46:38;;;;;;;9.60;5.20;;;23.70;69.30;;;;;;5007307;28;20498;-74
2022/06/20 03:49:10;;;;;;;10.87;5.60;;;23.60;69.20;;;;;;5000713;28;20464;-73
2022/06/20 03:51:43;;;;;;;14.90;5.43;;;23.60;69.20;;;;;;5006927;28;21037;-72
2022/06/20 03:54:16;;;;;;;11.20;5.40;;;23.70;69.10;;;;;;5003343;28;20510;-71
2022/06/20 03:56:53;;;;;;;12.37;4.87;;;23.70;68.70;;;;;;5004735;28;20467;-72
2022/06/20 03:59:26;;;;;;;11.77;4.97;;;23.70;68.40;;;;;;4999442;28;20493;-72
2022/06/20 04:01:59;;;;;;;12.13;4.20;;;23.60;68.30;;;;;;5004545;28;21036;-72
2022/06/20 04:04:33;;;;;;;13.97;4.77;;;23.50;68.30;;;;;;5009775;28;20577;-73
2022/06/20 04:07:04;;;;;;;8.90;5.03;;;23.50;68.10;;;;;;5007511;28;20517;-72
2022/06/20 04:12:37;;;;;;;8.77;4.17;;;23.30;67.70;;;;;;4954795;28;20491;-74
2022/06/20 04:15:11;;;;;;;9.40;3.90;;;23.20;67.80;;;;;;4985006;28;20462;-72
2022/06/20 04:20:39;;;;;;;8.33;3.30;;;23.20;67.30;;;;;;5006924;28;21047;-73
2022/06/20 04:23:13;;;;;;;7.40;3.70;;;23.20;67.10;;;;;;5001057;28;20514;-72
2022/06/20 04:25:46;;;;;;;11.83;4.10;;;23.20;66.90;;;;;;5005794;28;20462;-72
2022/06/20 04:28:22;;;;;;;9.10;3.67;;;23.10;66.60;;;;;;5010416;28;20470;-73
2022/06/20 04:30:55;;;;;;;8.90;3.33;;;23.00;66.50;;;;;;5010319;28;20469;-72
2022/06/20 04:33:29;;;;;;;10.27;3.83;;;23.00;66.70;;;;;;5010101;28;20886;-73
2022/06/20 04:36:06;;;;;;;12.40;3.83;;;23.00;66.50;;;;;;5006603;28;20548;-74
2022/06/20 04:38:43;;;;;;;6.17;3.20;;;22.90;66.60;;;;;;4992736;28;20497;-74
2022/06/20 04:41:17;;;;;;;17.13;4.20;;;22.90;66.50;;;;;;4993899;28;20486;-74
2022/06/20 04:43:51;;;;;;;9.20;4.30;;;23.00;66.40;;;;;;5006449;28;20493;-74
2022/06/20 04:46:25;;;;;;;7.73;3.10;;;23.00;66.20;;;;;;5009643;28;20484;-72
2022/06/20 04:48:56;;;;;;;12.37;3.80;;;23.00;66.10;;;;;;5000798;28;20984;-74
2022/06/20 04:51:36;;;;;;;7.33;3.40;;;23.00;66.10;;;;;;4984870;28;20832;-73
2022/06/20 04:54:08;;;;;;;8.20;3.40;;;23.00;66.00;;;;;;5008879;28;20534;-72
2022/06/20 04:56:37;;;;;;;9.83;3.87;;;23.00;66.00;;;;;;5000758;28;20858;-74
2022/06/20 04:59:09;;;;;;;15.43;3.60;;;23.00;65.90;;;;;;4997399;28;20459;-73
2022/06/20 05:01:39;;;;;;;7.80;3.50;;;23.10;65.70;;;;;;5008810;28;20487;-73
2022/06/20 05:04:21;;;;;;;8.90;3.43;;;23.00;65.70;;;;;;5010477;28;20521;-73
2022/06/20 05:06:52;;;;;;;9.23;3.60;;;23.00;65.60;;;;;;4993651;28;20475;-72
2022/06/20 05:09:27;;;;;;;12.57;3.90;;;23.00;65.60;;;;;;4994760;28;20455;-71
2022/06/20 05:12:10;;;;;;;8.90;3.70;;;23.00;65.60;;;;;;5008079;28;20476;-72
2022/06/20 05:14:47;;;;;;;8.37;3.13;;;22.90;65.50;;;;;;5008410;28;20444;-72
2022/06/20 05:17:22;;;;;;;8.17;4.00;;;22.90;65.50;;;;;;5008358;28;20485;-73
2022/06/20 05:19:54;;;;;;;8.00;3.63;;;23.00;65.40;;;;;;4995711;28;20460;-72
2022/06/20 05:22:27;;;;;;;10.80;3.40;;;23.00;65.50;;;;;;5001070;28;20485;-73
2022/06/20 05:24:58;;;;;;;12.10;3.53;;;23.10;65.50;;;;;;5005145;28;20464;-72
2022/06/20 05:27:30;;;;;;;16.93;3.27;;;23.20;65.70;;;;;;5006414;28;20887;-72
2022/06/20 05:30:01;;;;;;;9.43;4.30;;;23.40;65.40;;;;;;4999726;28;20933;-72
2022/06/20 05:32:37;;;;;;;9.60;4.10;;;23.50;65.20;;;;;;5002388;28;20572;-73
2022/06/20 05:35:13;;;;;;;8.10;3.53;;;23.60;65.10;;;;;;5006934;28;20455;-73
2022/06/20 05:37:47;;;;;;;9.93;3.43;;;23.60;64.90;;;;;;4999266;28;20460;-73
2022/06/20 05:40:20;;;;;;;12.03;4.10;;;23.60;64.80;;;;;;4998555;28;20458;-73
2022/06/20 05:42:48;;;;;;;15.57;4.40;;;23.60;64.90;;;;;;4988106;28;20564;-73
2022/06/20 05:45:19;;;;;;;8.17;4.17;;;23.60;64.80;;;;;;5006878;28;20468;-72
2022/06/20 05:47:51;;;;;;;12.43;4.13;;;23.60;64.80;;;;;;5006111;28;20468;-72
2022/06/20 05:50:32;;;;;;;9.93;4.60;;;23.60;65.00;;;;;;5001755;28;20460;-75
2022/06/20 05:53:03;;;;;;;10.60;3.80;;;23.60;65.20;;;;;;4999901;28;20881;-74
2022/06/20 05:55:44;;;;;;;10.60;4.20;;;23.70;65.20;;;;;;5006831;28;20458;-73
2022/06/20 05:58:17;;;;;;;9.93;4.13;;;23.70;65.30;;;;;;4996008;28;20875;-74
2022/06/20 06:00:46;;;;;;;10.93;4.50;;;23.70;65.30;;;;;;4998245;28;20473;-73
2022/06/20 06:03:19;;;;;;;8.27;3.70;;;23.80;65.50;;;;;;5044397;23;20495;-80
2022/06/20 06:05:54;;;;;;;12.00;4.47;;;23.90;65.50;;;;;;5057086;28;20588;-83
2022/06/20 06:08:29;;;;;;;7.40;3.90;;;23.90;65.60;;;;;;5022726;28;20452;-83
2022/06/20 06:11:22;;;;;;;14.73;4.67;;;23.90;65.60;;;;;;5024317;28;20469;-83
2022/06/20 06:13:56;;;;;;;7.47;4.23;;;24.00;65.60;;;;;;5035121;28;20823;-83
2022/06/20 06:16:48;;;;;;;12.83;4.63;;;24.00;65.70;;;;;;5038334;28;20552;-84
2022/06/20 06:19:34;;;;;;;7.50;4.40;;;24.00;65.80;;;;;;5028199;28;20511;-83
2022/06/20 06:22:06;;;;;;;7.80;3.80;;;24.10;65.60;;;;;;5036934;28;20858;-83
2022/06/20 06:24:36;;;;;;;9.73;3.73;;;24.10;65.60;;;;;;5039846;28;20449;-83
2022/06/20 06:27:07;;;;;;;9.40;4.20;;;24.10;65.50;;;;;;5039351;28;20478;-84
2022/06/20 06:29:38;;;;;;;10.13;3.60;;;24.00;65.30;;;;;;5020146;28;21112;-84
2022/06/20 06:32:16;;;;;;;8.87;4.20;;;23.90;65.50;;;;;;5023123;28;20805;-83
2022/06/20 06:34:53;;;;;;;13.37;4.50;;;23.90;65.60;;;;;;5021289;28;20444;-83
2022/06/20 06:37:27;;;;;;;10.43;4.00;;;23.80;65.70;;;;;;5024883;28;20503;-84
2022/06/20 06:40:01;;;;;;;7.77;3.40;;;23.80;65.70;;;;;;5016600;28;20466;-83
2022/06/20 06:42:29;;;;;;;8.20;4.00;;;23.90;65.80;;;;;;5023178;28;20474;-83
2022/06/20 06:44:59;;;;;;;8.20;4.07;;;23.90;65.80;;;;;;5026037;28;20480;-84
2022/06/20 06:47:35;;;;;;;8.13;3.90;;;23.90;65.90;;;;;;5020951;28;20494;-83
2022/06/20 06:50:18;;;;;;;11.53;4.30;;;23.90;65.80;;;;;;5020104;28;20486;-84
2022/06/20 06:52:54;;;;;;;9.10;3.63;;;23.80;65.60;;;;;;5021198;28;20454;-84
2022/06/20 06:55:26;;;;;;;9.80;4.33;;;23.70;65.60;;;;;;5036627;28;20470;-83
2022/06/20 06:58:00;;;;;;;10.03;4.57;;;23.60;65.90;;;;;;5022842;28;20963;-84
2022/06/20 07:00:33;;;;;;;9.80;4.07;;;23.70;66.00;;;;;;5036252;28;20580;-83
2022/06/20 07:03:06;;;;;;;7.93;3.80;;;23.70;66.30;;;;;;5019643;28;20489;-84
2022/06/20 07:05:37;;;;;;;8.10;4.17;;;23.60;66.00;;;;;;5018135;28;20455;-84
2022/06/20 07:08:12;;;;;;;10.87;4.30;;;23.60;66.10;;;;;;5017927;28;20454;-83
2022/06/20 07:10:47;;;;;;;7.37;3.90;;;23.60;66.20;;;;;;5019460;28;20464;-83
2022/06/20 07:13:24;;;;;;;10.57;4.37;;;23.60;66.30;;;;;;5017467;28;20821;-83
2022/06/20 07:15:56;;;;;;;12.40;4.87;;;23.70;66.40;;;;;;5018645;28;20500;-83
2022/06/20 07:18:38;;;;;;;9.80;4.70;;;23.80;66.40;;;;;;5018469;28;20459;-83
2022/06/20 07:21:10;;;;;;;8.40;4.10;;;23.80;66.40;;;;;;5021694;28;20469;-83
2022/06/20 07:23:38;;;;;;;9.63;4.33;;;23.90;66.40;;;;;;5036263;28;20492;-83
2022/06/20 07:26:06;;;;;;;10.97;4.10;;;23.90;66.20;;;;;;5017544;28;20930;-84
2022/06/20 07:28:40;;;;;;;11.40;4.43;;;24.00;66.30;;;;;;5016102;28;20824;-84
2022/06/20 07:31:15;;;;;;;9.53;4.07;;;24.00;66.30;;;;;;5021834;28;20486;-83
2022/06/20 07:33:52;;;;;;;9.27;4.27;;;24.00;66.40;;;;;;5015057;28;20529;-84
2022/06/20 07:36:25;;;;;;;9.80;3.77;;;24.20;66.40;;;;;;5026728;28;20516;-83
2022/06/20 07:38:58;;;;;;;9.50;4.80;;;24.30;66.40;;;;;;5018104;28;20462;-83
2022/06/20 07:41:33;;;;;;;10.53;4.30;;;24.40;66.30;;;;;;5024659;28;20484;-84
2022/06/20 07:44:07;;;;;;;12.00;4.60;;;24.50;66.20;;;;;;5023654;28;20486;-84
2022/06/20 07:46:45;;;;;;;10.17;4.73;;;24.50;65.90;;;;;;5038549;28;21015;-84
2022/06/20 07:49:18;;;;;;;10.30;4.17;;;24.50;65.90;;;;;;5044326;28;20464;-84
2022/06/20 07:51:51;;;;;;;10.33;4.37;;;24.50;65.90;;;;;;5042726;28;20453;-83
2022/06/20 07:54:24;;;;;;;9.17;4.10;;;24.60;65.90;;;;;;5046478;28;20465;-83
2022/06/20 07:56:57;;;;;;;10.20;4.23;;;24.70;65.90;;;;;;5041611;28;21174;-82
2022/06/20 07:59:34;;;;;;;8.17;3.87;;;24.70;65.70;;;;;;5044909;28;20458;-82
2022/06/20 08:02:07;;;;;;;10.83;4.37;;;24.80;65.80;;;;;;5021114;28;20497;-82
2022/06/20 08:04:37;;;;;;;10.10;4.73;;;24.80;65.60;;;;;;5019027;28;20485;-82
2022/06/20 08:07:28;;;;;;;8.37;4.20;;;24.80;65.60;;;;;;5024533;28;20490;-82
2022/06/20 08:10:09;;;;;;;7.73;4.13;;;24.90;65.60;;;;;;5028269;28;20553;-82
2022/06/20 08:13:03;;;;;;;11.23;3.97;;;25.00;65.50;;;;;;5024481;28;20470;-82
2022/06/20 08:15:34;;;;;;;8.60;4.63;;;25.10;65.40;;;;;;5017239;28;20478;-82
2022/06/20 08:18:02;;;;;;;8.57;4.27;;;25.10;65.10;;;;;;5021814;28;20511;-82
2022/06/20 08:20:36;;;;;;;9.23;4.70;;;25.10;65.00;;;;;;5017499;28;20454;-80
2022/06/20 08:23:12;;;;;;;13.97;5.23;;;25.10;64.90;;;;;;5018147;28;21018;-80
2022/06/20 08:25:47;;;;;;;9.10;4.37;;;25.10;64.60;;;;;;5022740;28;21067;-80
2022/06/20 08:28:19;;;;;;;9.80;4.70;;;25.10;65.20;;;;;;5040351;28;20467;-80
2022/06/20 08:30:52;;;;;;;10.47;4.40;;;25.20;65.20;;;;;;5021100;28;20480;-80
2022/06/20 08:33:27;;;;;;;6.93;3.73;;;25.30;65.10;;;;;;5021659;28;20448;-80
2022/06/20 08:36:03;;;;;;;11.73;4.20;;;25.40;64.90;;;;;;5020142;28;20478;-80
2022/06/20 08:38:37;;;;;;;7.80;3.63;;;25.40;64.60;;;;;;5027764;28;20464;-80
2022/06/20 08:41:33;;;;;;;8.23;3.60;;;25.50;64.60;;;;;;5037259;28;20456;-80
2022/06/20 08:44:31;;;;;;;8.70;3.20;;;25.50;64.10;;;;;;5032781;28;20471;-80
2022/06/20 08:47:35;;;;;;;8.13;2.83;;;25.60;64.20;;;;;;5023883;28;20491;-80
2022/06/20 08:50:35;;;;;;;10.20;3.30;;;25.60;63.80;;;;;;5024047;28;20884;-80
2022/06/20 08:53:51;;;;;;;8.60;3.60;;;25.70;63.80;;;;;;5018480;28;20975;-80
2022/06/20 08:56:34;;;;;;;8.00;2.70;;;25.80;63.40;;;;;;5020982;28;20495;-80
2022/06/20 08:59:25;;;;;;;9.37;3.87;;;25.80;63.40;;;;;;5024211;28;20475;-80
2022/06/20 09:01:59;;;;;;;9.07;4.10;;;25.80;63.00;;;;;;5039976;28;20484;-80
2022/06/20 09:04:47;;;;;;;8.10;3.40;;;25.80;63.10;;;;;;5019241;28;20487;-80
2022/06/20 09:07:35;;;;;;;8.37;3.87;;;25.80;63.10;;;;;;5045326;28;20487;-80
2022/06/20 09:10:30;;;;;;;10.13;4.07;;;25.80;62.90;;;;;;5021187;28;20484;-80
2022/06/20 09:13:38;;;;;;;7.43;3.17;;;25.80;62.80;;;;;;5021079;28;20840;-80
2022/06/20 09:16:17;;;;;;;9.63;3.57;;;25.80;62.90;;;;;;5003377;28;20482;-80
2022/06/20 09:19:08;;;;;;;7.20;3.77;;;25.90;62.80;;;;;;5019772;28;21291;-80
2022/06/20 09:21:46;;;;;;;13.80;4.30;;;26.00;62.80;;;;;;5022032;28;20490;-80
2022/06/20 09:24:30;;;;;;;7.70;2.97;;;26.10;62.80;;;;;;5024026;28;20486;-80
2022/06/20 09:27:07;;;;;;;11.00;3.53;;;26.20;62.80;;;;;;5020447;28;21028;-80
2022/06/20 09:30:02;;;;;;;8.33;3.60;;;26.20;62.70;;;;;;5023188;28;20464;-80
2022/06/20 09:33:21;;;;;;;8.93;3.43;;;26.30;62.50;;;;;;5024157;28;20492;-80
2022/06/20 09:36:21;;;;;;;6.17;2.50;;;26.30;61.70;;;;;;5021678;28;20491;-80
2022/06/20 09:39:27;;;;;;;8.40;3.47;;;26.30;62.10;;;;;;5039002;28;20475;-80
2022/06/20 09:42:05;;;;;;;7.83;2.93;;;26.10;61.90;;;;;;5039104;28;20465;-80
2022/06/20 09:44:44;;;;;;;7.77;2.83;;;26.00;62.20;;;;;;5016789;28;20561;-80
2022/06/20 09:47:24;;;;;;;9.60;3.80;;;25.90;62.00;;;;;;5020150;28;20487;-80
2022/06/20 09:50:12;;;;;;;7.37;3.30;;;25.80;62.30;;;;;;5020771;28;20472;-80
2022/06/20 09:52:58;;;;;;;11.50;4.27;;;25.80;62.40;;;;;;5015894;28;21155;-80
2022/06/20 09:55:34;;;;;;;7.80;3.13;;;25.90;62.50;;;;;;5041212;28;20464;-80
2022/06/20 09:58:11;;;;;;;9.43;3.27;;;25.90;62.50;;;;;;5021743;28;21043;-80
2022/06/20 10:00:48;;;;;;;7.33;2.77;;;26.00;62.50;;;;;;5039003;28;20477;-80
2022/06/20 10:03:24;;;;;;;13.57;3.80;;;26.00;62.50;;;;;;5038355;28;21210;-80
2022/06/20 10:05:55;;;;;;;11.17;2.83;;;26.00;62.50;;;;;;5042530;28;21259;-80
2022/06/20 10:08:35;;;;;;;6.10;2.90;;;26.10;62.50;;;;;;5020913;28;20546;-80
2022/06/20 10:11:09;;;;;;;11.10;3.50;;;26.10;62.80;;;;;;5036901;28;20517;-80
2022/06/20 10:13:44;;;;;;;6.40;3.43;;;26.10;62.90;;;;;;5036708;28;20462;-80
2022/06/20 10:16:21;;;;;;;8.43;3.03;;;26.10;63.10;;;;;;5017040;28;20994;-80
2022/06/20 10:18:56;;;;;;;6.67;3.37;;;26.00;63.00;;;;;;5036291;28;20453;-80
2022/06/20 10:21:30;;;;;;;8.70;3.37;;;25.80;63.10;;;;;;5015558;28;20457;-80
2022/06/20 10:24:20;;;;;;;10.73;3.27;;;25.60;63.10;;;;;;5034452;28;20482;-80
2022/06/20 10:27:22;;;;;;;11.50;4.13;;;25.30;63.20;;;;;;5021513;28;20483;-80
2022/06/20 10:30:02;;;;;;;6.50;3.27;;;25.00;63.90;;;;;;5012292;28;20466;-80
2022/06/20 10:32:55;;;;;;;10.43;3.63;;;24.80;63.80;;;;;;5017984;28;20478;-80
2022/06/20 10:35:44;;;;;;;6.63;3.87;;;24.50;64.30;;;;;;5018588;28;20465;-80
2022/06/20 10:38:26;;;;;;;11.37;3.80;;;24.20;64.50;;;;;;5024647;28;20462;-80
2022/06/20 10:41:05;;;;;;;11.13;4.00;;;24.00;64.70;;;;;;5033600;28;20999;-80
2022/06/20 10:43:45;;;;;;;11.60;3.57;;;23.90;65.30;;;;;;5017610;28;20454;-80
2022/06/20 10:46:26;;;;;;;7.90;4.03;;;23.80;65.50;;;;;;5036252;28;21088;-80
2022/06/20 10:49:15;;;;;;;7.77;4.20;;;23.80;65.70;;;;;;5035740;28;20554;-80
2022/06/20 10:51:52;;;;;;;10.80;4.00;;;23.80;66.70;;;;;;5042422;28;20484;-79
2022/06/20 10:54:36;;;;;;;10.80;3.80;;;23.70;66.10;;;;;;5020365;28;20453;-80
2022/06/20 10:57:16;;;;;;;9.40;3.80;;;23.80;66.40;;;;;;5023967;28;21015;-80
2022/06/20 10:59:55;;;;;;;8.77;4.13;;;23.70;66.50;;;;;;5020324;28;20463;-80
2022/06/20 11:02:40;;;;;;;11.63;4.60;;;23.70;67.00;;;;;;5041512;28;20478;-80
2022/06/20 11:05:19;;;;;;;11.87;5.83;;;23.50;66.90;;;;;;5019730;28;20527;-80
2022/06/20 11:07:55;;;;;;;9.40;5.47;;;23.40;67.10;;;;;;5018881;28;20457;-80
2022/06/20 11:10:41;;;;;;;7.93;4.53;;;23.20;67.40;;;;;;5025106;28;20465;-80
2022/06/20 11:13:18;;;;;;;13.37;5.10;;;23.10;67.50;;;;;;5020542;28;20464;-79
2022/06/20 11:15:55;;;;;;;12.10;5.63;;;23.00;68.00;;;;;;5027813;28;20478;-80
2022/06/20 11:18:38;;;;;;;9.43;5.70;;;22.90;68.60;;;;;;5016918;28;20556;-80
2022/06/20 11:21:16;;;;;;;9.40;5.70;;;22.80;69.00;;;;;;5023141;28;20479;-80
2022/06/20 11:23:54;;;;;;;10.30;6.43;;;22.80;68.90;;;;;;5036311;28;20450;-80
2022/06/20 11:26:32;;;;;;;11.67;6.80;;;22.70;69.30;;;;;;5020545;28;20488;-80
2022/06/20 11:29:22;;;;;;;11.53;7.27;;;22.70;69.50;;;;;;5013963;28;20451;-80
2022/06/20 11:32:00;;;;;;;11.83;7.10;;;22.60;70.10;;;;;;5020425;28;20878;-79
2022/06/20 11:34:57;;;;;;;13.60;7.47;;;22.60;69.90;;;;;;5037040;28;20474;-80
2022/06/20 11:37:41;;;;;;;16.60;6.70;;;22.50;69.90;;;;;;5033490;28;20483;-79
2022/06/20 11:40:29;;;;;;;11.37;7.40;;;22.40;70.00;;;;;;5023245;28;20474;-80
2022/06/20 11:43:23;;;;;;;10.30;6.23;;;22.40;70.70;;;;;;5018328;28;20460;-80
2022/06/20 11:46:05;;;;;;;14.63;7.50;;;22.20;71.30;;;;;;5019789;28;20486;-80
2022/06/20 11:48:47;;;;;;;11.10;5.70;;;22.20;71.00;;;;;;5018167;28;21262;-80
2022/06/20 11:51:22;;;;;;;10.40;6.90;;;22.20;71.10;;;;;;5020372;28;21254;-80
2022/06/20 11:54:03;;;;;;;11.23;6.30;;;22.10;71.20;;;;;;5023081;28;20473;-80
2022/06/20 11:56:38;;;;;;;8.67;4.90;;;22.10;71.50;;;;;;5036783;28;20476;-80
2022/06/20 11:59:28;;;;;;;13.87;5.00;;;21.90;71.60;;;;;;5022973;28;20952;-80
2022/06/20 12:02:06;;;;;;;6.90;3.77;;;21.90;71.50;;;;;;5036848;28;20479;-80
2022/06/20 12:04:39;;;;;;;8.23;3.60;;;21.80;71.80;;;;;;5023645;28;20462;-80
2022/06/20 12:07:34;;;;;;;7.60;3.17;;;21.80;72.00;;;;;;5016938;28;20493;-80
2022/06/20 12:10:15;;;;;;;6.60;2.90;;;21.70;71.80;;;;;;5014273;28;20472;-80
2022/06/20 12:12:55;;;;;;;6.40;3.17;;;21.60;71.90;;;;;;5039171;28;20472;-80
2022/06/20 12:15:36;;;;;;;5.07;2.57;;;21.70;71.80;;;;;;5023530;28;20458;-80
2022/06/20 12:18:26;;;;;;;5.50;2.77;;;21.70;72.10;;;;;;5019923;28;20471;-80
2022/06/20 12:23:50;;;;;;;7.03;3.20;;;21.70;71.90;;;;;;5001757;28;20468;-80
2022/06/20 12:26:22;;;;;;;5.60;3.10;;;21.60;71.90;;;;;;5021799;28;20538;-80
2022/06/20 12:28:53;;;;;;;6.23;3.33;;;21.60;71.70;;;;;;5026960;28;20460;-80
2022/06/20 12:31:24;;;;;;;6.37;3.53;;;21.70;71.70;;;;;;5024604;28;20460;-80
2022/06/20 12:33:55;;;;;;;6.93;3.00;;;21.60;71.80;;;;;;5022423;28;20452;-80
2022/06/20 12:36:31;;;;;;;6.83;3.33;;;21.50;71.90;;;;;;5028520;28;20473;-80
2022/06/20 12:39:04;;;;;;;7.10;2.90;;;21.40;71.90;;;;;;5022739;28;20466;-80
2022/06/20 12:41:40;;;;;;;5.27;2.60;;;21.40;72.10;;;;;;5019109;28;20453;-80
2022/06/20 12:44:32;;;;;;;9.33;3.50;;;21.40;71.90;;;;;;5026941;28;20872;-80
2022/06/20 12:47:25;;;;;;;5.40;3.30;;;21.40;72.20;;;;;;5022263;28;20485;-80
2022/06/20 12:50:15;;;;;;;6.53;3.23;;;21.40;72.00;;;;;;5023109;28;20453;-80
2022/06/20 12:52:54;;;;;;;6.73;2.97;;;21.40;72.10;;;;;;5025887;28;20465;-80
2022/06/20 12:55:38;;;;;;;5.60;2.67;;;21.40;72.00;;;;;;5041430;28;20459;-80
2022/06/20 12:58:33;;;;;;;5.30;3.03;;;21.30;71.90;;;;;;5021636;28;20556;-80
2022/06/20 13:01:08;;;;;;;4.80;2.60;;;21.40;72.00;;;;;;5022521;28;20468;-80
2022/06/20 13:04:10;;;;;;;5.10;2.80;;;21.50;72.00;;;;;;5023165;28;20473;-80
2022/06/20 13:06:50;;;;;;;5.43;2.70;;;21.50;72.10;;;;;;5037434;28;20497;-80
2022/06/20 13:09:44;;;;;;;4.77;2.60;;;21.60;71.90;;;;;;5025780;28;20470;-80
2022/06/20 13:12:25;;;;;;;4.70;2.47;;;21.60;71.70;;;;;;5029204;28;21000;-80
2022/06/20 13:15:32;;;;;;;5.63;2.27;;;21.60;71.70;;;;;;5042341;28;20463;-80
2022/06/20 13:18:20;;;;;;;4.27;2.20;;;21.60;71.90;;;;;;5017702;28;20465;-80
2022/06/20 13:20:56;;;;;;;4.10;1.63;;;21.70;71.70;;;;;;5029537;28;20462;-80
2022/06/20 13:23:46;;;;;;;4.17;1.50;;;21.80;71.30;;;;;;5040502;28;20518;-80
2022/06/20 13:26:23;;;;;;;4.50;1.90;;;21.70;70.60;;;;;;5020146;28;20503;-80
2022/06/20 13:28:58;;;;;;;3.87;1.43;;;21.70;70.90;;;;;;5018939;28;20554;-80
2022/06/20 13:31:39;;;;;;;4.10;1.50;;;21.70;71.00;;;;;;5037440;28;20819;-80
2022/06/20 13:34:14;;;;;;;4.30;1.40;;;21.80;70.70;;;;;;5016252;28;20463;-80
2022/06/20 13:36:50;;;;;;;3.60;1.40;;;21.80;70.40;;;;;;5026068;28;20476;-80
2022/06/20 13:39:27;;;;;;;3.90;1.10;;;21.70;70.10;;;;;;5039032;28;21293;-80
2022/06/20 13:42:03;;;;;;;3.27;1.10;;;21.70;69.70;;;;;;5023513;28;20973;-80